Time;durP1;ratioP1;P1;durP2;ratioP2;P2;SDS_P1;SDS_P2;PMS_P1;PMS_P2;Temp;Humidity;BMP_temperature;BMP_pressure;BME280_temperature;BME280_humidity;BME280_pressure;Samples;Min_cycle;Max_cycle;Signal;HPM_P1;HPM_P2
2023/09/16 00:00:59;;;;;;;3.92;3.63;;;20.50;99.90;;;;;;5004099;28;20204;-78
2023/09/16 00:03:26;;;;;;;3.47;3.28;;;20.50;99.90;;;;;;5003930;28;20248;-77
2023/09/16 00:05:53;;;;;;;3.28;2.97;;;20.40;99.90;;;;;;5004097;28;20929;-78
2023/09/16 00:08:21;;;;;;;3.22;3.00;;;20.40;99.90;;;;;;5003860;28;20208;-77
2023/09/16 00:10:49;;;;;;;3.25;3.05;;;20.30;99.90;;;;;;5006964;28;20201;-76
2023/09/16 00:13:16;;;;;;;3.25;3.05;;;20.40;99.90;;;;;;5002105;28;20867;-78
2023/09/16 00:15:48;;;;;;;3.20;3.00;;;20.40;99.90;;;;;;5005271;28;20827;-78
2023/09/16 00:18:15;;;;;;;2.90;2.70;;;20.30;99.90;;;;;;5005678;28;20643;-78
2023/09/16 00:20:42;;;;;;;3.20;3.00;;;20.30;99.90;;;;;;5007854;28;20246;-78
2023/09/16 00:23:09;;;;;;;3.00;2.80;;;20.30;99.90;;;;;;5005637;28;20224;-77
2023/09/16 00:25:38;;;;;;;4.30;3.28;;;20.30;99.90;;;;;;5011242;28;20506;-78
2023/09/16 00:28:06;;;;;;;3.00;2.80;;;20.30;99.90;;;;;;5002132;28;20748;-78
2023/09/16 00:30:33;;;;;;;3.00;2.80;;;20.30;99.90;;;;;;5008203;28;20243;-78
2023/09/16 00:33:00;;;;;;;3.92;3.30;;;20.40;99.90;;;;;;5006490;28;20259;-77
2023/09/16 00:35:27;;;;;;;2.95;2.75;;;20.30;99.90;;;;;;5009175;28;20224;-77
2023/09/16 00:37:54;;;;;;;2.58;2.47;;;20.40;99.90;;;;;;5011905;28;20254;-79
2023/09/16 00:40:20;;;;;;;3.25;3.00;;;20.30;99.90;;;;;;5005395;28;20258;-77
2023/09/16 00:42:49;;;;;;;2.88;2.67;;;20.30;99.90;;;;;;5009336;28;20200;-78
2023/09/16 00:45:16;;;;;;;3.30;3.10;;;20.30;99.90;;;;;;5003102;28;20262;-77
2023/09/16 00:47:43;;;;;;;4.25;3.95;;;20.30;99.90;;;;;;5006752;28;20251;-77
2023/09/16 00:50:12;;;;;;;4.13;3.83;;;20.20;99.90;;;;;;5002271;28;20274;-78
2023/09/16 00:52:45;;;;;;;3.55;3.35;;;20.00;99.90;;;;;;5005426;28;20258;-77
2023/09/16 00:55:13;;;;;;;3.67;3.42;;;19.80;99.90;;;;;;5003906;28;20201;-78
2023/09/16 00:57:43;;;;;;;3.88;3.58;;;19.70;99.90;;;;;;5005048;28;20254;-78
2023/09/16 01:00:12;;;;;;;3.55;3.35;;;19.70;99.90;;;;;;5008529;28;20240;-78
2023/09/16 01:02:39;;;;;;;3.30;3.10;;;19.70;99.90;;;;;;5008563;28;20682;-77
2023/09/16 01:05:13;;;;;;;3.13;2.83;;;19.80;99.90;;;;;;4999810;28;20208;-78
2023/09/16 01:07:41;;;;;;;3.15;2.95;;;19.90;99.90;;;;;;5007703;28;20199;-77
2023/09/16 01:10:10;;;;;;;3.20;3.00;;;20.00;99.90;;;;;;5005831;28;20193;-79
2023/09/16 01:12:37;;;;;;;3.08;2.88;;;20.00;99.90;;;;;;5006920;28;20199;-77
2023/09/16 01:15:06;;;;;;;2.97;2.78;;;20.00;99.90;;;;;;5009407;28;20315;-77
2023/09/16 01:17:37;;;;;;;3.15;2.92;;;20.00;99.90;;;;;;5011559;28;20195;-78
2023/09/16 01:20:11;;;;;;;2.60;2.50;;;20.10;99.90;;;;;;5004405;28;20789;-77
2023/09/16 01:22:44;;;;;;;2.85;2.65;;;20.10;99.90;;;;;;5014681;28;20206;-78
2023/09/16 01:25:13;;;;;;;3.20;3.00;;;20.10;99.90;;;;;;5004940;28;20196;-78
2023/09/16 01:27:40;;;;;;;3.05;2.85;;;20.00;99.90;;;;;;5008547;28;20199;-78
2023/09/16 01:30:08;;;;;;;3.20;3.00;;;20.10;99.90;;;;;;5007166;28;20201;-77
2023/09/16 01:32:41;;;;;;;3.00;2.80;;;20.10;99.90;;;;;;5009316;28;20258;-77
2023/09/16 01:35:10;;;;;;;3.30;3.10;;;20.10;99.90;;;;;;5004251;28;20272;-77
2023/09/16 01:37:39;;;;;;;3.30;3.10;;;20.10;99.90;;;;;;5005746;28;20226;-78
2023/09/16 01:40:10;;;;;;;3.60;3.00;;;20.00;99.90;;;;;;5004808;28;20196;-78
2023/09/16 01:42:39;;;;;;;3.03;2.83;;;20.00;99.90;;;;;;5006538;28;20227;-77
2023/09/16 01:45:07;;;;;;;3.10;2.85;;;20.00;99.90;;;;;;5006928;28;20287;-80
2023/09/16 01:47:34;;;;;;;3.17;2.97;;;19.90;99.90;;;;;;5007616;28;20226;-77
2023/09/16 01:50:01;;;;;;;2.80;2.53;;;19.90;99.90;;;;;;5010180;28;20406;-78
2023/09/16 01:52:28;;;;;;;3.45;3.25;;;19.90;99.90;;;;;;5005977;28;20236;-77
2023/09/16 01:54:55;;;;;;;3.25;3.05;;;19.90;99.90;;;;;;5009534;28;20299;-79
2023/09/16 01:57:22;;;;;;;3.30;3.00;;;19.90;99.90;;;;;;4998095;28;20207;-78
2023/09/16 01:59:51;;;;;;;3.20;2.90;;;19.90;99.90;;;;;;5005086;28;20212;-77
2023/09/16 02:02:18;;;;;;;2.75;2.58;;;19.80;99.90;;;;;;5007076;28;20213;-77
2023/09/16 02:04:44;;;;;;;3.42;3.10;;;19.80;99.90;;;;;;5005031;28;20220;-78
2023/09/16 02:07:11;;;;;;;2.72;2.53;;;19.80;99.90;;;;;;5012629;28;20230;-78
2023/09/16 02:09:38;;;;;;;3.13;2.92;;;19.70;99.90;;;;;;5006358;28;20227;-78
2023/09/16 02:12:06;;;;;;;3.55;3.30;;;19.70;99.90;;;;;;5006156;28;20592;-77
2023/09/16 02:14:38;;;;;;;3.97;3.67;;;19.60;99.90;;;;;;5006354;28;20232;-77
2023/09/16 02:17:09;;;;;;;4.00;3.70;;;19.40;99.90;;;;;;5004048;28;20287;-77
2023/09/16 02:19:36;;;;;;;3.53;3.22;;;19.20;99.90;;;;;;5012408;28;20230;-80
2023/09/16 02:22:03;;;;;;;3.25;3.05;;;19.20;99.90;;;;;;5010282;28;20274;-77
2023/09/16 02:24:31;;;;;;;3.53;3.28;;;19.20;99.90;;;;;;5010257;28;20942;-78
2023/09/16 02:26:58;;;;;;;3.88;3.58;;;19.10;99.90;;;;;;5016768;28;20324;-78
2023/09/16 02:29:25;;;;;;;3.78;3.47;;;18.90;99.90;;;;;;5018184;28;20208;-77
2023/09/16 02:31:52;;;;;;;3.83;3.53;;;18.70;99.90;;;;;;5011842;28;20207;-78
2023/09/16 02:34:21;;;;;;;3.97;3.58;;;18.70;99.90;;;;;;5011142;28;20216;-78
2023/09/16 02:36:47;;;;;;;3.50;3.30;;;18.70;99.90;;;;;;5008878;28;20254;-77
2023/09/16 02:39:14;;;;;;;3.63;3.38;;;18.60;99.90;;;;;;5006872;28;20559;-78
2023/09/16 02:41:41;;;;;;;3.58;3.28;;;18.60;99.90;;;;;;5008587;28;20223;-77
2023/09/16 02:44:08;;;;;;;3.70;3.40;;;18.70;99.90;;;;;;5006357;28;20271;-78
2023/09/16 02:46:36;;;;;;;3.22;3.03;;;18.60;99.90;;;;;;5010228;28;20205;-79
2023/09/16 02:49:03;;;;;;;3.40;3.10;;;18.70;99.90;;;;;;5005880;28;20633;-77
2023/09/16 02:51:32;;;;;;;3.83;3.53;;;18.70;99.90;;;;;;5006702;28;20235;-77
2023/09/16 02:54:00;;;;;;;4.22;3.92;;;18.70;99.90;;;;;;5013054;28;20263;-77
2023/09/16 02:56:27;;;;;;;3.35;3.15;;;18.60;99.90;;;;;;5007905;28;20697;-77
2023/09/16 02:58:54;;;;;;;3.97;3.67;;;18.50;99.90;;;;;;5011594;28;20663;-78
2023/09/16 03:01:21;;;;;;;3.78;3.47;;;18.50;99.90;;;;;;5008271;28;20279;-79
2023/09/16 03:03:48;;;;;;;3.90;3.55;;;18.60;99.90;;;;;;5007759;28;20307;-79
2023/09/16 03:06:15;;;;;;;3.60;3.40;;;18.60;99.90;;;;;;5006992;28;20720;-77
2023/09/16 03:08:43;;;;;;;3.90;3.45;;;18.40;99.90;;;;;;5010057;28;20200;-78
2023/09/16 03:11:10;;;;;;;3.80;3.50;;;18.40;99.90;;;;;;5011406;28;20254;-78
2023/09/16 03:13:37;;;;;;;3.63;3.42;;;18.40;99.90;;;;;;5008884;28;20270;-77
2023/09/16 03:16:15;;;;;;;3.60;3.30;;;18.30;99.90;;;;;;5010314;28;20259;-78
2023/09/16 03:18:44;;;;;;;3.47;3.28;;;18.20;99.90;;;;;;5007576;28;20200;-77
2023/09/16 03:21:12;;;;;;;3.47;3.17;;;18.20;99.90;;;;;;5009823;28;20311;-79
2023/09/16 03:23:39;;;;;;;4.00;3.70;;;18.20;99.90;;;;;;5002167;28;20816;-77
2023/09/16 03:26:08;;;;;;;3.97;3.67;;;18.20;99.90;;;;;;5004242;28;20273;-77
2023/09/16 03:28:35;;;;;;;3.20;3.00;;;18.10;99.90;;;;;;5009524;28;20204;-78
2023/09/16 03:31:02;;;;;;;3.42;3.17;;;18.10;99.90;;;;;;5007087;28;20204;-78
2023/09/16 03:33:29;;;;;;;3.55;3.25;;;18.20;99.90;;;;;;5005277;28;20224;-78
2023/09/16 03:35:56;;;;;;;3.42;3.13;;;18.40;99.90;;;;;;5009938;28;20587;-77
2023/09/16 03:38:26;;;;;;;3.78;3.47;;;18.40;99.90;;;;;;5004427;28;20196;-77
2023/09/16 03:40:54;;;;;;;3.60;3.40;;;18.50;99.90;;;;;;5007426;28;20201;-76
2023/09/16 03:43:22;;;;;;;3.60;3.40;;;18.50;99.90;;;;;;5010717;28;20786;-78
2023/09/16 03:45:49;;;;;;;3.70;3.50;;;18.50;99.90;;;;;;5008037;28;20845;-78
2023/09/16 03:48:16;;;;;;;3.72;3.42;;;18.50;99.90;;;;;;5009711;28;20706;-77
2023/09/16 03:50:43;;;;;;;3.40;3.20;;;18.50;99.90;;;;;;5012195;28;20235;-77
2023/09/16 03:53:10;;;;;;;3.15;2.95;;;18.50;99.90;;;;;;5011775;28;20271;-78
2023/09/16 03:55:37;;;;;;;3.90;3.60;;;18.50;99.90;;;;;;5009619;28;20217;-78
2023/09/16 03:58:04;;;;;;;3.90;3.60;;;18.50;99.90;;;;;;5007908;28;20650;-77
2023/09/16 04:00:32;;;;;;;3.50;3.30;;;18.40;99.90;;;;;;5002233;28;20205;-78
2023/09/16 04:03:00;;;;;;;3.92;3.63;;;18.20;99.90;;;;;;5004070;28;20262;-78
2023/09/16 04:05:27;;;;;;;3.80;3.50;;;18.20;99.90;;;;;;5008003;28;20206;-79
2023/09/16 04:07:54;;;;;;;3.80;3.53;;;18.20;99.90;;;;;;5008810;28;20212;-78
2023/09/16 04:10:21;;;;;;;4.40;4.10;;;18.10;99.90;;;;;;5004304;28;20258;-78
2023/09/16 04:12:48;;;;;;;4.05;3.75;;;18.00;99.90;;;;;;5011517;28;20603;-77
2023/09/16 04:15:15;;;;;;;4.20;3.90;;;18.10;99.90;;;;;;5008419;28;20694;-78
2023/09/16 04:17:43;;;;;;;3.92;3.63;;;18.20;99.90;;;;;;5009632;28;20199;-78
2023/09/16 04:20:11;;;;;;;3.70;3.50;;;18.20;99.90;;;;;;5010313;28;20219;-77
2023/09/16 04:22:38;;;;;;;4.63;3.50;;;18.20;99.90;;;;;;5010011;28;20652;-78
2023/09/16 04:25:05;;;;;;;3.67;3.38;;;18.20;99.90;;;;;;5009465;28;20219;-78
2023/09/16 04:27:32;;;;;;;3.50;3.30;;;18.20;99.90;;;;;;5014294;28;20223;-77
2023/09/16 04:29:59;;;;;;;3.80;3.55;;;18.20;99.90;;;;;;5006898;28;20207;-77
2023/09/16 04:32:26;;;;;;;9.52;5.45;;;18.30;99.90;;;;;;5009299;28;20582;-77
2023/09/16 04:34:58;;;;;;;17.55;6.57;;;18.40;99.90;;;;;;5011360;28;20229;-78
2023/09/16 04:37:25;;;;;;;15.02;6.65;;;18.40;99.90;;;;;;5009455;28;20287;-77
2023/09/16 04:39:52;;;;;;;7.63;5.28;;;18.50;99.90;;;;;;5009959;28;20209;-77
2023/09/16 04:42:19;;;;;;;5.28;4.10;;;18.50;99.90;;;;;;5007934;28;20744;-77
2023/09/16 04:44:48;;;;;;;4.60;4.20;;;18.40;99.90;;;;;;5001509;28;20282;-77
2023/09/16 04:47:15;;;;;;;4.93;3.70;;;18.30;99.90;;;;;;5005202;28;20280;-79
2023/09/16 04:49:43;;;;;;;3.97;3.70;;;18.30;99.90;;;;;;5003302;28;20204;-77
2023/09/16 04:52:11;;;;;;;3.50;3.30;;;18.30;99.90;;;;;;5007579;28;20223;-77
2023/09/16 04:54:38;;;;;;;4.03;3.72;;;18.40;99.90;;;;;;5005048;28;20232;-77
2023/09/16 04:57:06;;;;;;;3.50;3.30;;;18.30;99.90;;;;;;5005724;28;20219;-78
2023/09/16 04:59:33;;;;;;;3.90;3.60;;;18.40;99.90;;;;;;5004347;28;20208;-77
2023/09/16 05:02:00;;;;;;;3.60;3.30;;;18.40;99.90;;;;;;5009030;28;20629;-77
2023/09/16 05:04:27;;;;;;;3.35;3.15;;;18.40;99.90;;;;;;5004026;28;20216;-77
2023/09/16 05:06:54;;;;;;;3.63;3.35;;;18.40;99.90;;;;;;5007074;28;20551;-79
2023/09/16 05:09:23;;;;;;;4.30;4.00;;;18.40;99.90;;;;;;5006087;28;20851;-78
2023/09/16 05:11:50;;;;;;;5.97;4.25;;;18.40;99.90;;;;;;5006741;28;20248;-78
2023/09/16 05:14:17;;;;;;;4.80;4.40;;;18.20;99.90;;;;;;5007937;28;20216;-76
2023/09/16 05:16:44;;;;;;;4.20;3.88;;;18.10;99.90;;;;;;5007022;28;20212;-78
2023/09/16 05:19:10;;;;;;;6.57;4.00;;;18.20;99.90;;;;;;5009251;28;20267;-78
2023/09/16 05:21:38;;;;;;;3.83;3.53;;;18.40;99.90;;;;;;5006259;28;20201;-78
2023/09/16 05:24:06;;;;;;;4.40;4.10;;;18.60;99.90;;;;;;5002386;28;20224;-77
2023/09/16 05:26:34;;;;;;;3.33;3.13;;;18.60;99.90;;;;;;4997397;28;20249;-77
2023/09/16 05:29:01;;;;;;;3.17;2.88;;;18.50;99.90;;;;;;5000690;28;20259;-77
2023/09/16 05:31:28;;;;;;;3.30;3.00;;;18.50;99.90;;;;;;5004039;28;20231;-76
2023/09/16 05:33:55;;;;;;;4.05;3.38;;;18.50;99.90;;;;;;5006694;28;20298;-77
2023/09/16 05:36:23;;;;;;;3.13;2.80;;;18.70;99.90;;;;;;5007923;28;20266;-77
2023/09/16 05:38:50;;;;;;;3.67;3.38;;;18.90;99.90;;;;;;5004749;28;20642;-79
2023/09/16 05:41:19;;;;;;;3.58;3.38;;;19.00;99.90;;;;;;5004040;28;20260;-78
2023/09/16 05:43:48;;;;;;;3.80;3.58;;;19.10;99.90;;;;;;5001328;28;20299;-78
2023/09/16 05:46:15;;;;;;;3.90;3.60;;;19.40;99.90;;;;;;5001913;28;20630;-79
2023/09/16 05:48:42;;;;;;;3.85;3.55;;;19.50;99.90;;;;;;5004341;28;20295;-77
2023/09/16 05:51:10;;;;;;;3.95;3.65;;;19.70;99.90;;;;;;5015560;28;20613;-77
2023/09/16 05:53:37;;;;;;;4.40;4.10;;;19.70;99.90;;;;;;5007430;28;20708;-77
2023/09/16 05:56:06;;;;;;;3.65;3.35;;;19.60;99.90;;;;;;5013509;28;20247;-77
2023/09/16 05:58:33;;;;;;;3.97;3.67;;;19.60;99.90;;;;;;5007582;28;20700;-77
2023/09/16 06:01:01;;;;;;;5.10;4.70;;;19.50;99.90;;;;;;5003611;28;20208;-77
2023/09/16 06:03:29;;;;;;;4.13;3.83;;;19.40;99.90;;;;;;5008164;28;20232;-78
2023/09/16 06:05:59;;;;;;;4.35;4.05;;;19.40;99.90;;;;;;5006010;28;20247;-78
2023/09/16 06:08:26;;;;;;;4.18;3.88;;;19.60;99.90;;;;;;5011323;28;20292;-78
2023/09/16 06:10:53;;;;;;;4.28;3.97;;;19.70;99.90;;;;;;5008551;28;20254;-78
2023/09/16 06:13:20;;;;;;;3.83;3.53;;;19.70;99.90;;;;;;5011164;28;20759;-78
2023/09/16 06:15:47;;;;;;;4.32;3.92;;;19.70;99.90;;;;;;5010855;28;20228;-78
2023/09/16 06:18:16;;;;;;;4.20;3.90;;;19.70;99.90;;;;;;5014709;28;20278;-77
2023/09/16 06:20:43;;;;;;;6.20;4.13;;;19.70;99.90;;;;;;5014098;28;20212;-76
2023/09/16 06:23:10;;;;;;;4.38;3.97;;;19.60;99.90;;;;;;5003963;28;20275;-78
2023/09/16 06:25:38;;;;;;;3.50;3.30;;;19.60;99.90;;;;;;5012041;28;20196;-77
2023/09/16 06:28:05;;;;;;;3.90;3.60;;;19.40;99.90;;;;;;5007992;28;20208;-78
2023/09/16 06:30:32;;;;;;;4.07;3.78;;;19.40;99.90;;;;;;5009187;28;20284;-77
2023/09/16 06:32:59;;;;;;;3.47;3.28;;;19.50;99.90;;;;;;5011821;28;20296;-77
2023/09/16 06:35:28;;;;;;;3.65;3.38;;;19.70;99.90;;;;;;5009454;28;20255;-77
2023/09/16 06:37:55;;;;;;;4.00;3.70;;;19.90;99.90;;;;;;5013269;28;20208;-76
2023/09/16 06:40:22;;;;;;;3.55;3.35;;;20.10;99.90;;;;;;5006867;28;20225;-78
2023/09/16 06:42:49;;;;;;;3.50;3.20;;;20.20;99.90;;;;;;5008566;28;20220;-78
2023/09/16 06:45:16;;;;;;;3.78;3.47;;;20.20;99.90;;;;;;5009770;28;20196;-77
2023/09/16 06:47:44;;;;;;;4.00;3.70;;;20.30;99.90;;;;;;5013492;28;20200;-77
2023/09/16 06:50:12;;;;;;;4.32;4.03;;;20.20;99.90;;;;;;5007419;28;20204;-79
2023/09/16 06:52:40;;;;;;;3.95;3.60;;;20.20;99.90;;;;;;5011823;28;20584;-78
2023/09/16 06:55:07;;;;;;;4.05;3.75;;;20.30;99.90;;;;;;5014441;28;20227;-77
2023/09/16 06:57:34;;;;;;;3.90;3.60;;;20.30;99.90;;;;;;5005922;28;20204;-77
2023/09/16 07:00:01;;;;;;;4.07;3.78;;;20.40;99.90;;;;;;5008892;28;20257;-77
2023/09/16 07:02:28;;;;;;;4.07;3.78;;;20.50;99.90;;;;;;5004378;28;20236;-79
2023/09/16 07:04:56;;;;;;;4.68;4.07;;;20.40;99.90;;;;;;5007973;28;20224;-77
2023/09/16 07:07:24;;;;;;;3.95;3.65;;;20.30;99.90;;;;;;5007812;28;20243;-79
2023/09/16 07:09:55;;;;;;;4.18;3.88;;;20.30;99.90;;;;;;5010037;28;20296;-77
2023/09/16 07:12:22;;;;;;;4.20;3.90;;;20.20;99.90;;;;;;5011689;28;20291;-78
2023/09/16 07:14:49;;;;;;;4.57;4.22;;;20.10;99.90;;;;;;5007630;28;20228;-77
2023/09/16 07:17:16;;;;;;;4.07;3.78;;;19.90;99.90;;;;;;5012231;28;20204;-78
2023/09/16 07:19:45;;;;;;;3.72;3.42;;;19.90;99.90;;;;;;5010584;28;20255;-77
2023/09/16 07:22:12;;;;;;;4.07;3.63;;;19.90;99.90;;;;;;5013521;28;20205;-79
2023/09/16 07:24:39;;;;;;;4.40;4.00;;;19.90;99.90;;;;;;5010618;28;20606;-78
2023/09/16 07:27:07;;;;;;;4.00;3.70;;;20.00;99.90;;;;;;5015088;28;20196;-77
2023/09/16 07:29:34;;;;;;;4.10;3.75;;;20.10;99.90;;;;;;5009969;28;20270;-77
2023/09/16 07:32:01;;;;;;;5.47;4.30;;;20.10;99.90;;;;;;5013616;28;20870;-77
2023/09/16 07:34:28;;;;;;;3.70;3.40;;;20.20;99.90;;;;;;5009537;28;20220;-78
2023/09/16 07:36:58;;;;;;;3.78;3.53;;;20.30;99.90;;;;;;5011922;28;20224;-78
2023/09/16 07:39:25;;;;;;;4.00;3.70;;;20.50;99.90;;;;;;5009079;28;20197;-77
2023/09/16 07:41:52;;;;;;;3.95;3.65;;;20.60;99.90;;;;;;5007086;28;20196;-77
2023/09/16 07:44:20;;;;;;;4.03;3.72;;;20.40;99.90;;;;;;5008110;28;20625;-77
2023/09/16 07:46:48;;;;;;;4.50;4.10;;;20.30;99.90;;;;;;5011883;28;20192;-78
2023/09/16 07:49:15;;;;;;;4.85;3.72;;;20.30;99.90;;;;;;5017505;28;20195;-78
2023/09/16 07:51:45;;;;;;;3.80;3.50;;;20.50;99.90;;;;;;5011170;28;20651;-78
2023/09/16 07:54:12;;;;;;;4.53;4.22;;;20.50;99.90;;;;;;5013897;28;20273;-80
2023/09/16 07:56:39;;;;;;;4.45;4.15;;;20.30;99.90;;;;;;5021693;28;20579;-78
2023/09/16 07:59:06;;;;;;;4.95;4.47;;;20.10;99.90;;;;;;5009746;28;20200;-78
2023/09/16 08:01:35;;;;;;;4.07;3.78;;;19.90;99.90;;;;;;5016299;28;20200;-78
2023/09/16 08:04:01;;;;;;;4.40;4.00;;;19.90;99.90;;;;;;5006689;28;20221;-78
2023/09/16 08:06:29;;;;;;;4.15;3.85;;;20.00;99.90;;;;;;5015265;28;20251;-78
2023/09/16 08:08:55;;;;;;;6.10;5.00;;;20.20;99.90;;;;;;5013433;28;20246;-78
2023/09/16 08:11:22;;;;;;;4.22;3.80;;;20.40;99.90;;;;;;5013142;28;20250;-78
2023/09/16 08:13:51;;;;;;;4.57;4.18;;;20.50;99.90;;;;;;5014196;28;20274;-79
2023/09/16 08:16:18;;;;;;;4.43;4.03;;;20.50;99.90;;;;;;5009591;28;20227;-78
2023/09/16 08:18:47;;;;;;;4.38;3.97;;;20.40;99.90;;;;;;5011859;28;20200;-78
2023/09/16 08:21:14;;;;;;;4.93;4.53;;;20.70;99.90;;;;;;5006968;28;20215;-78
2023/09/16 08:23:42;;;;;;;5.00;4.47;;;20.90;99.90;;;;;;5011921;28;20285;-79
2023/09/16 08:26:09;;;;;;;4.55;4.18;;;21.10;99.90;;;;;;5007870;28;20287;-79
2023/09/16 08:28:36;;;;;;;4.57;4.18;;;21.30;99.90;;;;;;5011638;28;20266;-79
2023/09/16 08:31:04;;;;;;;3.70;3.50;;;21.50;99.90;;;;;;5005305;28;20670;-78
2023/09/16 08:33:31;;;;;;;4.57;4.18;;;21.80;99.90;;;;;;5012235;28;20262;-77
2023/09/16 08:35:59;;;;;;;4.20;3.80;;;22.00;99.90;;;;;;5012251;28;20229;-79
2023/09/16 08:38:26;;;;;;;4.55;4.20;;;22.30;99.90;;;;;;5007004;28;20250;-79
2023/09/16 08:41:01;;;;;;;4.20;3.90;;;22.80;99.90;;;;;;5012563;28;20266;-78
2023/09/16 08:43:32;;;;;;;4.10;3.80;;;23.20;99.90;;;;;;5010134;28;20274;-78
2023/09/16 08:46:01;;;;;;;4.85;4.20;;;23.70;99.90;;;;;;5006506;28;20810;-78
2023/09/16 08:48:34;;;;;;;5.53;4.45;;;24.10;99.90;;;;;;5012518;28;20196;-78
2023/09/16 08:51:06;;;;;;;5.05;4.65;;;24.20;99.90;;;;;;5011084;28;20196;-80
2023/09/16 08:53:36;;;;;;;4.60;4.20;;;24.10;99.90;;;;;;5008398;28;20302;-77
2023/09/16 08:56:05;;;;;;;4.07;3.60;;;24.20;99.90;;;;;;5008388;28;20497;-77
2023/09/16 08:58:35;;;;;;;4.53;3.38;;;24.40;99.90;;;;;;5008026;28;20200;-78
2023/09/16 09:01:02;;;;;;;3.40;3.10;;;25.00;99.90;;;;;;5009604;28;20861;-78
2023/09/16 09:03:30;;;;;;;4.00;3.70;;;25.70;99.90;;;;;;5010197;28;20302;-78
2023/09/16 09:05:58;;;;;;;3.92;3.55;;;26.10;99.90;;;;;;5010820;28;20457;-78
2023/09/16 09:08:26;;;;;;;3.97;3.60;;;26.50;99.90;;;;;;5008340;28;20670;-79
2023/09/16 09:10:53;;;;;;;4.40;4.10;;;26.50;99.90;;;;;;4999107;28;20308;-78
2023/09/16 09:13:22;;;;;;;4.13;3.72;;;26.50;99.90;;;;;;5006685;28;20286;-78
2023/09/16 09:15:50;;;;;;;5.70;3.55;;;26.10;99.90;;;;;;5009030;28;21001;-80
2023/09/16 09:18:18;;;;;;;4.85;3.97;;;25.70;99.90;;;;;;5010875;28;20196;-78
2023/09/16 09:20:46;;;;;;;4.32;3.92;;;25.40;99.90;;;;;;5006090;28;20208;-78
2023/09/16 09:23:14;;;;;;;4.18;3.78;;;25.60;99.90;;;;;;5007471;28;20217;-81
2023/09/16 09:25:42;;;;;;;3.63;3.38;;;26.00;99.90;;;;;;5003484;28;20231;-78
2023/09/16 09:28:10;;;;;;;4.25;3.95;;;26.10;99.90;;;;;;5007155;28;20205;-79
2023/09/16 09:30:37;;;;;;;3.95;3.65;;;26.20;99.90;;;;;;5003652;28;20204;-79
2023/09/16 09:33:04;;;;;;;4.07;3.78;;;26.30;99.90;;;;;;5014646;28;20227;-79
2023/09/16 09:35:32;;;;;;;3.75;3.45;;;26.20;99.90;;;;;;5006269;28;20200;-80
2023/09/16 09:38:00;;;;;;;4.47;3.50;;;26.20;99.90;;;;;;5006800;28;20546;-78
2023/09/16 09:46:37;;;;;;;4.22;3.85;;;25.50;99.90;;;;;;4996800;28;20258;-80
2023/09/16 09:49:05;;;;;;;3.72;3.45;;;25.90;99.90;;;;;;5008660;28;20790;-79
2023/09/16 09:51:32;;;;;;;4.13;3.75;;;26.10;99.90;;;;;;5006532;28;20200;-79
2023/09/16 09:53:59;;;;;;;4.03;3.60;;;26.10;99.90;;;;;;5009406;28;20228;-79
2023/09/16 09:56:26;;;;;;;3.95;3.63;;;26.20;99.90;;;;;;5010669;28;20303;-79
2023/09/16 09:58:53;;;;;;;3.70;3.40;;;26.40;99.90;;;;;;5007915;28;20212;-79
2023/09/16 10:01:22;;;;;;;4.18;3.67;;;26.20;99.90;;;;;;5005918;28;20585;-79
2023/09/16 10:03:50;;;;;;;4.57;4.18;;;26.00;99.90;;;;;;5006393;28;20254;-79
2023/09/16 10:06:19;;;;;;;3.70;3.40;;;25.80;99.90;;;;;;5006193;28;20208;-79
2023/09/16 10:08:46;;;;;;;3.50;3.20;;;25.70;99.90;;;;;;5005309;28;20216;-80
2023/09/16 10:11:13;;;;;;;3.83;3.60;;;26.00;99.90;;;;;;5005597;28;20235;-80
2023/09/16 10:13:40;;;;;;;4.03;3.70;;;26.40;99.90;;;;;;5010694;28;20222;-80
2023/09/16 10:16:07;;;;;;;3.50;3.30;;;26.70;99.90;;;;;;5003064;28;20270;-78
2023/09/16 10:18:35;;;;;;;3.25;3.05;;;26.90;99.90;;;;;;5005991;28;20212;-79
2023/09/16 10:21:03;;;;;;;6.22;4.00;;;27.10;99.90;;;;;;5005559;28;20247;-78
2023/09/16 10:23:32;;;;;;;4.28;3.88;;;27.30;99.90;;;;;;5004402;28;20989;-79
2023/09/16 10:25:59;;;;;;;4.60;4.20;;;27.00;99.90;;;;;;5004479;28;20306;-78
2023/09/16 10:28:28;;;;;;;4.80;4.40;;;26.90;99.90;;;;;;5002615;28;20208;-79
2023/09/16 10:30:56;;;;;;;3.95;3.65;;;26.90;99.90;;;;;;5006150;28;20232;-79
2023/09/16 10:33:24;;;;;;;4.80;4.30;;;27.00;99.90;;;;;;5002602;28;20228;-79
2023/09/16 10:35:52;;;;;;;4.85;4.45;;;26.80;99.90;;;;;;5004264;28;20205;-77
2023/09/16 10:38:22;;;;;;;3.95;3.65;;;26.90;99.90;;;;;;5007504;28;20200;-78
2023/09/16 10:40:50;;;;;;;4.13;3.83;;;26.90;99.90;;;;;;5002904;28;20212;-79
2023/09/16 10:43:18;;;;;;;3.97;3.67;;;27.00;99.90;;;;;;5006295;28;20227;-79
2023/09/16 10:45:47;;;;;;;4.20;3.15;;;27.30;99.90;;;;;;5005623;28;20239;-78
2023/09/16 10:48:14;;;;;;;4.03;3.72;;;27.50;99.90;;;;;;5005732;28;20255;-79
2023/09/16 10:50:42;;;;;;;3.45;3.25;;;27.90;99.90;;;;;;5005294;28;20289;-79
2023/09/16 10:53:10;;;;;;;4.55;3.40;;;27.80;99.90;;;;;;5004856;28;20228;-78
2023/09/16 10:55:47;;;;;;;4.18;3.88;;;27.60;99.90;;;;;;5004982;28;20255;-80
2023/09/16 10:58:22;;;;;;;3.80;3.50;;;27.40;99.90;;;;;;5000167;28;20216;-77
2023/09/16 11:00:54;;;;;;;3.75;3.45;;;27.30;99.90;;;;;;5003451;28;20276;-79
2023/09/16 11:03:27;;;;;;;3.53;3.22;;;27.40;99.90;;;;;;5007096;28;20220;-78
2023/09/16 11:05:54;;;;;;;3.70;3.50;;;27.40;99.90;;;;;;5007662;28;20621;-78
2023/09/16 11:08:21;;;;;;;3.22;3.03;;;27.20;99.90;;;;;;5004369;28;20192;-78
2023/09/16 11:10:49;;;;;;;3.83;3.53;;;26.90;99.90;;;;;;5010080;28;20200;-78
2023/09/16 11:13:17;;;;;;;3.88;3.58;;;26.80;99.90;;;;;;5010133;28;20256;-78
2023/09/16 11:15:47;;;;;;;3.50;3.28;;;26.80;99.90;;;;;;5005587;28;20405;-78
2023/09/16 11:18:16;;;;;;;3.60;3.30;;;26.80;99.90;;;;;;5009545;28;20216;-78
2023/09/16 11:20:43;;;;;;;3.45;3.25;;;26.60;99.90;;;;;;5006097;28;20201;-78
2023/09/16 11:23:11;;;;;;;3.50;3.28;;;26.30;99.90;;;;;;5002043;28;20228;-79
2023/09/16 11:25:40;;;;;;;3.72;3.42;;;26.00;99.90;;;;;;4999119;28;20622;-79
2023/09/16 11:28:10;;;;;;;3.22;2.92;;;25.90;99.90;;;;;;5004692;28;20565;-80
2023/09/16 11:30:38;;;;;;;3.20;3.00;;;25.80;99.90;;;;;;5002436;28;20203;-78
2023/09/16 11:33:24;;;;;;;3.53;3.22;;;25.90;99.90;;;;;;5007238;28;20866;-79
2023/09/16 11:36:08;;;;;;;3.85;3.45;;;26.20;99.90;;;;;;5002498;28;20207;-78
2023/09/16 11:38:35;;;;;;;3.58;3.28;;;26.40;99.90;;;;;;5013145;28;20856;-78
2023/09/16 11:41:09;;;;;;;3.88;3.47;;;26.20;99.90;;;;;;5008417;28;20257;-78
2023/09/16 11:43:38;;;;;;;3.60;3.30;;;26.30;99.90;;;;;;5006107;28;20884;-78
2023/09/16 11:46:06;;;;;;;3.03;2.80;;;26.30;99.90;;;;;;5009924;28;20790;-78
2023/09/16 11:48:50;;;;;;;3.20;3.00;;;26.20;99.90;;;;;;5007565;28;20200;-80
2023/09/16 11:51:18;;;;;;;3.22;3.03;;;26.00;99.90;;;;;;5008532;28;20212;-79
2023/09/16 11:53:46;;;;;;;3.22;2.90;;;25.80;99.90;;;;;;5007963;28;20219;-79
2023/09/16 11:56:13;;;;;;;3.05;2.85;;;25.90;99.90;;;;;;5008883;28;20267;-79
2023/09/16 11:58:44;;;;;;;3.00;2.80;;;26.00;99.90;;;;;;5014254;28;20216;-79
2023/09/16 12:01:12;;;;;;;3.05;2.85;;;26.20;99.90;;;;;;5006956;28;20198;-79
2023/09/16 12:03:41;;;;;;;2.90;2.70;;;26.30;99.90;;;;;;5005873;28;20228;-79
2023/09/16 12:06:09;;;;;;;2.20;2.10;;;26.30;99.90;;;;;;5008074;28;20303;-77
2023/09/16 12:08:36;;;;;;;1.90;1.80;;;26.70;99.90;;;;;;5007052;28;20599;-81
2023/09/16 12:11:04;;;;;;;1.90;1.80;;;27.40;99.90;;;;;;5009655;28;20250;-80
2023/09/16 12:13:32;;;;;;;2.20;2.10;;;27.70;99.90;;;;;;5005408;28;20275;-78
2023/09/16 12:16:01;;;;;;;2.90;2.42;;;27.40;99.90;;;;;;5007369;28;20258;-80
2023/09/16 12:18:28;;;;;;;2.10;2.00;;;27.30;99.90;;;;;;5014696;28;20686;-81
2023/09/16 12:20:55;;;;;;;2.30;2.20;;;27.20;99.90;;;;;;5006524;28;20205;-81
2023/09/16 12:23:24;;;;;;;4.20;2.00;;;27.40;99.90;;;;;;5012333;28;20216;-79
2023/09/16 12:25:51;;;;;;;2.75;2.10;;;27.30;99.90;;;;;;5004896;28;20218;-79
2023/09/16 12:28:21;;;;;;;2.42;2.22;;;27.10;99.90;;;;;;5010078;28;20208;-80
2023/09/16 12:30:50;;;;;;;2.22;2.10;;;27.10;99.90;;;;;;5008629;28;20254;-80
2023/09/16 12:33:20;;;;;;;2.35;2.20;;;27.00;99.90;;;;;;5009970;28;20224;-79
2023/09/16 12:35:47;;;;;;;1.92;1.83;;;26.70;99.90;;;;;;5012037;28;20295;-79
2023/09/16 12:38:15;;;;;;;1.90;1.80;;;26.80;99.90;;;;;;5013440;28;20275;-77
2023/09/16 12:40:45;;;;;;;2.03;1.92;;;26.70;99.90;;;;;;5010625;28;20204;-80
2023/09/16 12:43:13;;;;;;;2.17;2.03;;;26.60;99.90;;;;;;5007131;28;20224;-79
2023/09/16 12:45:41;;;;;;;4.18;2.25;;;26.60;99.90;;;;;;5006103;28;20250;-80
2023/09/16 12:48:10;;;;;;;2.70;2.40;;;26.40;99.90;;;;;;5001937;28;20196;-80
2023/09/16 12:50:39;;;;;;;2.80;2.60;;;26.20;99.90;;;;;;5003563;28;20696;-77
2023/09/16 12:53:06;;;;;;;2.53;2.40;;;26.00;99.90;;;;;;5001659;28;20260;-79
2023/09/16 12:55:33;;;;;;;2.70;2.50;;;25.90;99.90;;;;;;5004992;28;20232;-80
2023/09/16 12:58:01;;;;;;;2.20;2.10;;;26.00;99.90;;;;;;4997977;28;20220;-80